Terminal Aerodrome Forecast
Issued by NWS

Home | Current Version | Previous Version | Text Only | Print | Product List | Glossary On
Versions: 1 2 3 4 5 6 7 8 9 10 11 12
664
FTUS42 TJSJ 221728
TAFJSJ
TAF
TJSJ 221728Z 2218/2318 07013G20KT P6SM FEW035
     FM222300 10006KT P6SM SCT030
     FM230900 VRB04KT P6SM VCSH SCT030
     FM231400 08010KT P6SM SCT030=

USA.gov is the U.S. government's official web portal to all federal, state and local government web resources and services.